Guntown, Mississippi
Current Conditions -  °F | °C
As of 3:53 PM on Friday 24 Oct 2014 (Local Time) from KTUP Reporting Station
Clear Clear  
Wind Chill: 72°   Ceiling: Unl
Heat Index: 72°   Visibility: 10mi
Dew Point: 40°   Wind: 7mph
Humidity: 31%   Direction: 50°NE
Pressure: 30.07"   Gusts: NA
Location:  34.44°N, 88.66°W
Report Text: KTUP 242053Z AUTO 05006KT 10SM CLR 22/04 A3007 RMK AO2 SLP178 T02220044 56013 $
Loading
Personal Weather Stations






























Interactive Weather Map
Tropical Storm Tracking
New forecast layout! Learn more

10-Day Weather Forecast

Advertisements
Track Severe Weather on mobile